Time;durP1;ratioP1;P1;durP2;ratioP2;P2;SDS_P1;SDS_P2;PMS_P1;PMS_P2;Temp;Humidity;BMP_temperature;BMP_pressure;BME280_temperature;BME280_humidity;BME280_pressure;Samples;Min_cycle;Max_cycle;Signal;HPM_P1;HPM_P2
2023/02/08 00:00:39;;;;;;;12.73;9.83;;;-1.50;99.90;;;;;;5031097;28;20205;-84
2023/02/08 00:03:04;;;;;;;12.33;9.93;;;-0.80;99.90;;;;;;5029265;28;20286;-83
2023/02/08 00:05:30;;;;;;;15.50;9.37;;;-0.70;99.90;;;;;;5027910;28;20186;-85
2023/02/08 00:07:56;;;;;;;15.90;11.07;;;-1.10;99.90;;;;;;5036551;28;20645;-83
2023/02/08 00:10:21;;;;;;;15.20;10.70;;;-1.10;99.90;;;;;;5028491;28;20456;-84
2023/02/08 00:12:47;;;;;;;15.47;9.90;;;-1.20;99.90;;;;;;5033094;28;20188;-83
2023/02/08 00:15:12;;;;;;;16.00;10.93;;;-0.90;99.90;;;;;;5035074;28;20181;-84
2023/02/08 00:17:38;;;;;;;15.50;10.57;;;-1.00;99.90;;;;;;5028737;28;20211;-82
2023/02/08 00:20:04;;;;;;;13.97;10.53;;;-0.40;99.90;;;;;;5033639;28;21471;-83
2023/02/08 00:22:30;;;;;;;14.55;10.60;;;-1.30;99.90;;;;;;5032113;28;20200;-84
2023/02/08 00:24:55;;;;;;;12.80;10.45;;;-1.20;99.90;;;;;;5045980;28;20188;-83
2023/02/08 00:27:21;;;;;;;13.40;10.40;;;-1.20;99.90;;;;;;5048101;28;20189;-83
2023/02/08 00:29:47;;;;;;;13.73;10.20;;;-0.80;99.90;;;;;;5029621;28;20182;-83
2023/02/08 00:32:12;;;;;;;13.73;10.50;;;-0.50;99.90;;;;;;5030723;28;20210;-82
2023/02/08 00:34:38;;;;;;;13.80;9.60;;;-1.30;99.90;;;;;;5027591;28;20217;-83
2023/02/08 00:37:05;;;;;;;11.47;8.70;;;-1.30;99.90;;;;;;5033812;28;20184;-81
2023/02/08 00:39:30;;;;;;;11.52;9.50;;;-1.20;99.90;;;;;;5034591;28;20186;-82
2023/02/08 00:41:56;;;;;;;13.43;9.53;;;-1.50;99.90;;;;;;5028182;28;20220;-83
2023/02/08 00:44:22;;;;;;;19.07;12.70;;;-1.30;99.90;;;;;;5031085;28;20181;-83
2023/02/08 00:46:47;;;;;;;13.43;10.63;;;-1.40;99.90;;;;;;5031369;28;20192;-84
2023/02/08 00:49:13;;;;;;;13.20;10.30;;;-0.70;99.90;;;;;;5031849;28;20680;-83
2023/02/08 00:51:38;;;;;;;14.93;10.30;;;-1.40;99.90;;;;;;5032181;28;20200;-83
2023/02/08 00:54:04;;;;;;;14.47;10.00;;;-1.60;99.90;;;;;;5029504;28;20170;-83
2023/02/08 00:56:29;;;;;;;15.80;10.13;;;-1.10;99.90;;;;;;5033510;28;20189;-82
2023/02/08 00:58:55;;;;;;;14.70;10.00;;;-1.70;99.90;;;;;;5033210;28;20318;-83
2023/02/08 01:01:20;;;;;;;15.33;10.47;;;-1.40;99.90;;;;;;5032767;28;20220;-83
2023/02/08 01:03:47;;;;;;;14.30;10.80;;;-1.40;99.90;;;;;;5045261;28;20182;-84
2023/02/08 01:06:15;;;;;;;13.50;9.88;;;-1.20;99.90;;;;;;5030357;28;20186;-82
2023/02/08 01:08:41;;;;;;;12.52;9.48;;;-1.50;99.90;;;;;;5044147;28;20189;-84
2023/02/08 01:11:11;;;;;;;14.07;10.60;;;-1.20;99.90;;;;;;5050984;28;20319;-84
2023/02/08 01:13:38;;;;;;;14.80;10.10;;;-1.40;99.90;;;;;;5029818;28;21230;-84
2023/02/08 01:16:30;;;;;;;15.27;10.95;;;-1.50;99.90;;;;;;5030686;28;20185;-83
2023/02/08 01:18:58;;;;;;;12.90;9.75;;;-1.30;99.90;;;;;;5029403;28;20199;-81
2023/02/08 01:21:26;;;;;;;12.13;9.60;;;-1.50;99.90;;;;;;5042887;28;20760;-83
2023/02/08 01:23:52;;;;;;;13.57;9.85;;;-1.30;99.90;;;;;;5048676;28;20209;-82
2023/02/08 01:26:18;;;;;;;19.35;9.93;;;-1.40;99.90;;;;;;5026142;28;20221;-83
2023/02/08 01:28:44;;;;;;;18.10;10.57;;;-1.50;99.90;;;;;;5032373;28;20180;-83
2023/02/08 01:31:13;;;;;;;12.90;10.90;;;-1.40;99.90;;;;;;5045251;28;20205;-81
2023/02/08 01:33:39;;;;;;;16.63;11.13;;;-1.70;99.90;;;;;;5030663;28;20188;-83
2023/02/08 01:36:06;;;;;;;13.83;10.03;;;-1.60;99.90;;;;;;5030723;28;20183;-82
2023/02/08 01:38:32;;;;;;;11.55;8.52;;;-1.60;99.90;;;;;;5028807;28;20178;-82
2023/02/08 01:40:58;;;;;;;13.60;9.90;;;-1.70;99.90;;;;;;5033102;28;20215;-81
2023/02/08 01:43:54;;;;;;;16.02;10.30;;;-1.60;99.90;;;;;;5042104;28;20247;-82
2023/02/08 01:46:21;;;;;;;14.02;9.25;;;-1.80;99.90;;;;;;5029840;28;20231;-81
2023/02/08 01:48:47;;;;;;;14.13;10.80;;;-2.30;99.90;;;;;;5030785;28;20190;-81
2023/02/08 01:51:18;;;;;;;13.60;10.15;;;-2.00;99.90;;;;;;5026104;28;20202;-82
2023/02/08 01:53:44;;;;;;;13.23;10.00;;;-1.90;99.90;;;;;;5027380;28;20190;-82
2023/02/08 01:56:17;;;;;;;15.40;10.87;;;-1.90;99.90;;;;;;5050531;28;20314;-83
2023/02/08 01:58:46;;;;;;;16.00;10.30;;;-1.70;99.90;;;;;;5030141;28;20468;-80
2023/02/08 02:01:13;;;;;;;13.45;9.90;;;-1.50;99.90;;;;;;5040956;28;20208;-84
2023/02/08 02:03:39;;;;;;;13.30;9.70;;;-1.90;99.90;;;;;;5047741;28;20191;-83
2023/02/08 02:06:11;;;;;;;13.67;10.20;;;-2.10;99.90;;;;;;5029482;28;20196;-83
2023/02/08 02:08:41;;;;;;;13.70;10.98;;;-2.50;99.90;;;;;;5033347;28;20462;-83
2023/02/08 02:11:07;;;;;;;12.35;9.50;;;-1.70;99.90;;;;;;5025046;28;20213;-83
2023/02/08 02:13:33;;;;;;;13.60;10.13;;;-1.70;99.90;;;;;;5030636;28;20314;-83
2023/02/08 02:15:59;;;;;;;14.32;9.65;;;-1.70;99.90;;;;;;5031677;28;20519;-83
2023/02/08 02:18:28;;;;;;;14.97;10.23;;;-1.90;99.90;;;;;;5028461;28;20513;-83
2023/02/08 02:21:13;;;;;;;13.98;9.93;;;-1.30;99.90;;;;;;5048833;28;20212;-84
2023/02/08 02:24:26;;;;;;;10.80;8.93;;;-1.60;99.90;;;;;;5024563;28;20284;-82
2023/02/08 02:27:11;;;;;;;13.73;9.02;;;-1.90;99.90;;;;;;5005151;28;20194;-82
2023/02/08 02:29:53;;;;;;;13.57;9.25;;;-2.10;99.90;;;;;;5027810;28;20197;-81
2023/02/08 02:32:50;;;;;;;11.93;8.65;;;-2.00;99.90;;;;;;5031228;28;20207;-82
2023/02/08 02:35:35;;;;;;;13.50;9.88;;;-2.20;99.90;;;;;;5038239;28;20196;-83
2023/02/08 02:38:10;;;;;;;12.52;9.45;;;-2.70;99.90;;;;;;5048884;28;20177;-83
2023/02/08 02:40:59;;;;;;;13.45;9.23;;;-2.70;99.90;;;;;;5033787;28;20203;-83
2023/02/08 02:43:45;;;;;;;12.20;9.40;;;-2.50;99.90;;;;;;5032854;28;20189;-81
2023/02/08 02:46:23;;;;;;;12.77;8.95;;;-2.30;99.90;;;;;;5034311;28;20704;-82
2023/02/08 02:49:07;;;;;;;10.18;8.10;;;-1.50;99.90;;;;;;5035953;28;20204;-82
2023/02/08 02:51:45;;;;;;;10.95;8.45;;;-2.40;99.90;;;;;;5046333;28;20203;-83
2023/02/08 02:54:13;;;;;;;13.35;9.18;;;-2.00;99.90;;;;;;5049993;28;20259;-82
2023/02/08 02:56:49;;;;;;;13.80;10.07;;;-2.60;99.90;;;;;;5038084;28;20855;-83
2023/02/08 02:59:15;;;;;;;15.50;9.45;;;-2.40;99.90;;;;;;5031412;28;20650;-82
2023/02/08 03:01:43;;;;;;;11.18;8.45;;;-1.90;99.90;;;;;;5035212;28;20202;-83
2023/02/08 03:04:32;;;;;;;12.75;8.57;;;-2.10;99.90;;;;;;5031428;28;20261;-82
2023/02/08 03:07:00;;;;;;;9.73;8.25;;;-2.40;99.90;;;;;;5031035;28;20668;-83
2023/02/08 03:10:01;;;;;;;12.43;8.98;;;-2.00;99.90;;;;;;5053803;28;20210;-82
2023/02/08 03:12:32;;;;;;;15.80;9.40;;;-2.40;99.90;;;;;;4940258;29;20293;-83
2023/02/08 03:15:23;;;;;;;15.23;10.55;;;-2.10;99.90;;;;;;5016669;28;20186;-82
2023/02/08 03:18:04;;;;;;;11.90;8.00;;;-2.20;99.90;;;;;;5037533;28;20540;-83
2023/02/08 03:20:40;;;;;;;14.57;8.35;;;-2.50;99.90;;;;;;5031365;28;20234;-82
2023/02/08 03:23:19;;;;;;;16.55;9.10;;;-2.40;99.90;;;;;;5031725;28;20175;-82
2023/02/08 03:25:57;;;;;;;11.77;8.65;;;-2.40;99.90;;;;;;5037747;28;20533;-82
2023/02/08 03:28:27;;;;;;;14.55;10.23;;;-2.40;99.90;;;;;;5031530;28;20183;-84
2023/02/08 03:31:08;;;;;;;11.52;9.02;;;-2.30;99.90;;;;;;5032021;28;20204;-82
2023/02/08 03:33:43;;;;;;;15.13;9.30;;;-2.50;99.90;;;;;;5031355;28;20220;-83
2023/02/08 03:36:31;;;;;;;11.90;9.68;;;-2.50;99.90;;;;;;5045893;28;20311;-83
2023/02/08 03:39:00;;;;;;;13.32;9.30;;;-2.10;99.90;;;;;;5026236;28;20178;-82
2023/02/08 03:41:31;;;;;;;14.63;10.20;;;-2.60;99.90;;;;;;5036727;28;20214;-82
2023/02/08 03:44:05;;;;;;;12.93;9.32;;;-2.10;99.90;;;;;;5026372;28;20189;-82
2023/02/08 03:46:35;;;;;;;11.52;9.75;;;-2.70;99.90;;;;;;5029290;28;20670;-84
2023/02/08 03:49:09;;;;;;;13.98;10.30;;;-2.60;99.90;;;;;;5033336;28;20191;-84
2023/02/08 03:51:38;;;;;;;11.00;8.75;;;-2.70;99.90;;;;;;5031069;28;20202;-83
2023/02/08 03:54:08;;;;;;;11.30;8.35;;;-3.00;99.90;;;;;;5045748;28;20186;-83
2023/02/08 03:57:03;;;;;;;14.25;9.63;;;-2.70;99.90;;;;;;5029951;28;20183;-81
2023/02/08 03:59:34;;;;;;;14.98;9.60;;;-2.70;99.90;;;;;;5029369;28;20188;-82
2023/02/08 04:02:03;;;;;;;12.30;9.30;;;-2.40;99.90;;;;;;5031211;28;20206;-82
2023/02/08 04:04:33;;;;;;;13.65;8.10;;;-2.80;99.90;;;;;;5029713;28;20175;-83
2023/02/08 04:06:59;;;;;;;13.77;9.32;;;-2.70;99.90;;;;;;5025906;28;20190;-82
2023/02/08 04:09:24;;;;;;;12.60;8.97;;;-2.90;99.90;;;;;;5029336;28;20185;-83
2023/02/08 04:11:50;;;;;;;12.73;9.27;;;-2.70;99.90;;;;;;5048549;28;20213;-84
2023/02/08 04:14:16;;;;;;;12.00;9.85;;;-2.60;99.90;;;;;;5030350;28;20241;-83
2023/02/08 04:16:42;;;;;;;12.87;9.30;;;-2.60;99.90;;;;;;5028484;28;20178;-84
2023/02/08 04:19:07;;;;;;;20.17;9.90;;;-2.40;99.90;;;;;;5031110;28;20197;-83
2023/02/08 04:21:33;;;;;;;14.97;8.37;;;-2.10;99.90;;;;;;5030908;28;20210;-83
2023/02/08 04:23:58;;;;;;;10.17;9.07;;;-2.40;99.90;;;;;;5028370;28;20181;-83
2023/02/08 04:26:24;;;;;;;13.33;9.30;;;-2.50;99.90;;;;;;5029334;28;20186;-83
2023/02/08 04:28:49;;;;;;;14.10;8.93;;;-3.30;99.90;;;;;;5049409;28;20187;-83
2023/02/08 04:31:15;;;;;;;11.80;8.73;;;-2.90;99.90;;;;;;5027742;28;20207;-84
2023/02/08 04:33:41;;;;;;;12.70;9.60;;;-2.60;99.90;;;;;;5024150;28;20183;-84
2023/02/08 04:36:07;;;;;;;13.93;9.37;;;-2.20;99.90;;;;;;5028303;28;20235;-82
2023/02/08 04:38:32;;;;;;;11.45;8.88;;;-2.80;99.90;;;;;;5029697;28;20182;-82
2023/02/08 04:40:58;;;;;;;12.10;9.17;;;-2.70;99.90;;;;;;5047569;28;20209;-83
2023/02/08 04:43:23;;;;;;;12.60;9.03;;;-2.70;99.90;;;;;;5032189;28;20174;-83
2023/02/08 04:45:50;;;;;;;12.33;9.60;;;-2.30;99.90;;;;;;5026972;28;20221;-82
2023/02/08 04:48:16;;;;;;;16.30;9.75;;;-2.80;99.90;;;;;;5025536;28;20176;-82
2023/02/08 04:50:41;;;;;;;12.00;9.00;;;-2.40;99.90;;;;;;5046242;28;20263;-83
2023/02/08 04:53:07;;;;;;;13.93;10.90;;;-2.80;99.90;;;;;;5027245;28;20183;-83
2023/02/08 04:55:33;;;;;;;11.07;9.17;;;-3.40;99.90;;;;;;5030435;28;20520;-83
2023/02/08 04:57:58;;;;;;;13.50;9.17;;;-2.30;99.90;;;;;;5031900;28;20187;-83
2023/02/08 05:00:24;;;;;;;12.40;8.87;;;-3.00;99.90;;;;;;5026669;28;20429;-84
2023/02/08 05:02:53;;;;;;;13.33;9.33;;;-2.50;99.90;;;;;;5046930;28;20170;-82
2023/02/08 05:05:19;;;;;;;11.95;8.55;;;-2.90;99.90;;;;;;5022583;28;20198;-83
2023/02/08 05:07:44;;;;;;;14.17;8.93;;;-2.80;99.90;;;;;;5029601;28;20221;-84
2023/02/08 05:10:10;;;;;;;12.23;9.17;;;-2.90;99.90;;;;;;5044191;28;20629;-84
2023/02/08 05:12:36;;;;;;;15.07;9.13;;;-3.40;99.90;;;;;;5029143;28;20213;-84
2023/02/08 05:15:01;;;;;;;12.00;9.80;;;-2.30;99.90;;;;;;5019853;28;20178;-84
2023/02/08 05:17:26;;;;;;;14.83;9.07;;;-2.80;99.90;;;;;;5046766;28;20185;-81
2023/02/08 05:19:52;;;;;;;14.83;9.67;;;-2.60;99.90;;;;;;5047666;28;20185;-83
2023/02/08 05:22:18;;;;;;;10.70;8.50;;;-2.80;99.90;;;;;;5041118;28;20708;-84
2023/02/08 05:24:43;;;;;;;12.87;9.47;;;-3.50;99.90;;;;;;5040121;28;20190;-84
2023/02/08 05:27:09;;;;;;;15.37;10.20;;;-2.70;99.90;;;;;;5029790;28;20206;-83
2023/02/08 05:29:34;;;;;;;15.93;9.83;;;-2.80;99.90;;;;;;5023127;28;20709;-83
2023/02/08 05:32:00;;;;;;;14.20;10.17;;;-3.10;99.90;;;;;;5024866;28;20218;-83
2023/02/08 05:34:25;;;;;;;13.80;9.60;;;-3.00;99.90;;;;;;5023024;28;20214;-83
2023/02/08 05:36:51;;;;;;;13.23;9.50;;;-2.40;99.90;;;;;;5027176;28;20186;-84
2023/02/08 05:39:16;;;;;;;15.30;9.77;;;-3.10;99.90;;;;;;5020676;28;20635;-84
2023/02/08 05:41:42;;;;;;;13.47;10.20;;;-3.50;99.90;;;;;;5040164;28;20217;-83
2023/02/08 05:44:07;;;;;;;14.50;10.10;;;-2.90;99.90;;;;;;5022984;28;20201;-82
2023/02/08 05:46:33;;;;;;;12.93;8.87;;;-3.10;99.90;;;;;;5032617;28;20202;-83
2023/02/08 05:48:59;;;;;;;12.27;10.07;;;-2.90;99.90;;;;;;5028748;28;20278;-83
2023/02/08 05:51:25;;;;;;;12.82;9.63;;;-2.90;99.90;;;;;;5026116;28;20238;-84
2023/02/08 05:53:50;;;;;;;13.83;10.83;;;-2.90;99.90;;;;;;5030749;28;20214;-85
2023/02/08 05:56:16;;;;;;;12.20;9.43;;;-3.00;99.90;;;;;;5029380;28;20190;-84
2023/02/08 05:58:41;;;;;;;12.07;10.77;;;-3.00;99.90;;;;;;5043506;28;20174;-84
2023/02/08 06:01:11;;;;;;;14.53;9.57;;;-2.50;99.90;;;;;;5046943;28;20211;-84
2023/02/08 06:03:37;;;;;;;14.68;10.57;;;-3.00;99.90;;;;;;5027213;28;20578;-84
2023/02/08 06:06:04;;;;;;;15.95;10.02;;;-3.00;99.90;;;;;;5024947;28;20217;-84
2023/02/08 06:08:29;;;;;;;17.30;10.20;;;-2.90;99.90;;;;;;5044411;28;20183;-84
2023/02/08 06:10:55;;;;;;;13.20;9.60;;;-3.00;99.90;;;;;;5027259;28;20544;-84
2023/02/08 06:13:20;;;;;;;14.67;10.93;;;-2.80;99.90;;;;;;5026330;28;20213;-84
2023/02/08 06:15:46;;;;;;;14.63;10.03;;;-2.80;99.90;;;;;;5026070;28;20591;-84
2023/02/08 06:18:11;;;;;;;17.17;11.57;;;-2.80;99.90;;;;;;5025507;28;20180;-83
2023/02/08 06:20:37;;;;;;;13.50;10.60;;;-3.10;99.90;;;;;;5026497;28;20205;-83
2023/02/08 06:23:03;;;;;;;15.47;10.30;;;-3.70;99.90;;;;;;5027035;28;20183;-83
2023/02/08 06:25:28;;;;;;;19.23;11.40;;;-3.70;99.90;;;;;;5045587;28;20183;-83
2023/02/08 06:27:54;;;;;;;16.93;11.03;;;-3.10;99.90;;;;;;5038490;28;20939;-83
2023/02/08 06:30:19;;;;;;;16.10;9.63;;;-3.00;99.90;;;;;;5027570;28;20261;-83
2023/02/08 06:32:45;;;;;;;14.40;10.87;;;-3.10;99.90;;;;;;5023792;28;20199;-83
2023/02/08 06:35:10;;;;;;;10.90;8.97;;;-3.00;99.90;;;;;;5024685;28;20179;-83
2023/02/08 06:37:36;;;;;;;20.03;10.77;;;-3.00;99.90;;;;;;5028326;28;20629;-82
2023/02/08 06:40:03;;;;;;;13.70;10.07;;;-3.10;99.90;;;;;;5025732;28;20648;-82
2023/02/08 06:42:29;;;;;;;16.42;10.75;;;-2.90;99.90;;;;;;5027041;28;20217;-82
2023/02/08 06:44:54;;;;;;;15.13;10.17;;;-2.90;99.90;;;;;;5021269;28;20186;-83
2023/02/08 06:47:21;;;;;;;14.47;10.67;;;-3.20;99.90;;;;;;5027880;28;20193;-83
2023/02/08 06:49:47;;;;;;;13.80;11.15;;;-2.80;99.90;;;;;;5025806;28;20459;-84
2023/02/08 06:52:12;;;;;;;15.53;10.30;;;-3.00;99.90;;;;;;5026606;28;20202;-82
2023/02/08 06:54:37;;;;;;;14.90;10.60;;;-3.00;99.90;;;;;;5026987;28;20265;-83
2023/02/08 06:57:03;;;;;;;17.63;11.30;;;-3.00;99.90;;;;;;5024852;28;20182;-81
2023/02/08 06:59:29;;;;;;;19.70;10.70;;;-3.20;99.90;;;;;;5045235;28;20711;-82
2023/02/08 07:01:54;;;;;;;18.73;12.23;;;-3.10;99.90;;;;;;5029105;28;20205;-80
2023/02/08 07:04:20;;;;;;;16.40;11.23;;;-2.90;99.90;;;;;;5037187;28;20186;-83
2023/02/08 07:06:48;;;;;;;17.73;12.37;;;-3.00;99.90;;;;;;5039414;28;20192;-82
2023/02/08 07:09:15;;;;;;;19.15;13.02;;;-2.90;99.90;;;;;;5024835;28;20186;-85
2023/02/08 07:11:40;;;;;;;16.80;10.65;;;-3.10;99.90;;;;;;5029039;28;20211;-87
2023/02/08 07:14:06;;;;;;;16.10;10.83;;;-2.80;99.90;;;;;;5028872;28;20187;-84
2023/02/08 07:16:31;;;;;;;15.23;10.80;;;-2.50;99.90;;;;;;5028514;28;20242;-83
2023/02/08 07:18:57;;;;;;;14.20;9.50;;;-2.70;99.90;;;;;;5030058;28;20187;-81
2023/02/08 07:21:23;;;;;;;17.40;10.47;;;-2.70;99.90;;;;;;5028931;28;20210;-81
2023/02/08 07:23:49;;;;;;;15.53;10.87;;;-2.70;99.90;;;;;;5024314;28;20283;-86
2023/02/08 07:26:14;;;;;;;17.03;11.37;;;-2.70;99.90;;;;;;5026087;28;20433;-88
2023/02/08 07:28:41;;;;;;;14.47;10.50;;;-2.30;99.90;;;;;;5031104;28;20798;-86
2023/02/08 07:31:12;;;;;;;17.38;11.30;;;-2.90;99.90;;;;;;5024080;28;20220;-88
2023/02/08 07:33:38;;;;;;;17.02;12.50;;;-2.80;99.90;;;;;;5029091;28;20178;-86
2023/02/08 07:36:04;;;;;;;14.50;10.77;;;-2.70;99.90;;;;;;5033333;28;20183;-87
2023/02/08 07:38:32;;;;;;;27.42;13.27;;;-2.50;99.90;;;;;;5031804;28;20446;-87
2023/02/08 07:41:10;;;;;;;16.88;11.35;;;-2.60;99.90;;;;;;5047443;28;20665;-87
2023/02/08 07:43:38;;;;;;;21.15;12.18;;;-2.70;99.90;;;;;;5057730;28;20202;-87
2023/02/08 07:46:09;;;;;;;15.30;11.43;;;-2.70;99.90;;;;;;5054582;28;20198;-87
2023/02/08 07:48:35;;;;;;;23.38;13.35;;;-2.80;99.90;;;;;;5036183;28;20262;-85
2023/02/08 07:51:01;;;;;;;22.20;12.75;;;-2.40;99.90;;;;;;5033095;28;20202;-82
2023/02/08 07:53:27;;;;;;;18.25;12.48;;;-2.20;99.90;;;;;;5028754;28;20184;-85
2023/02/08 07:55:52;;;;;;;19.20;13.07;;;-3.20;99.90;;;;;;5036371;28;20598;-86
2023/02/08 07:58:18;;;;;;;21.00;12.97;;;-2.30;99.90;;;;;;5032548;28;20460;-85
2023/02/08 08:00:43;;;;;;;21.67;13.53;;;-2.40;99.90;;;;;;5032830;28;20198;-82
2023/02/08 08:03:09;;;;;;;31.73;16.67;;;-1.90;99.90;;;;;;5048033;28;20203;-85
2023/02/08 08:05:35;;;;;;;34.20;17.63;;;-2.10;99.90;;;;;;5026655;28;20176;-83
2023/02/08 08:08:01;;;;;;;23.05;13.80;;;-2.30;99.90;;;;;;5028702;28;20205;-84
2023/02/08 08:10:26;;;;;;;24.53;14.63;;;-1.80;99.90;;;;;;5024232;28;20520;-84
2023/02/08 08:12:52;;;;;;;20.23;12.70;;;-1.90;99.90;;;;;;5042706;28;20684;-85
2023/02/08 08:15:17;;;;;;;21.30;14.23;;;-1.80;99.90;;;;;;5026760;28;20217;-87
2023/02/08 08:17:43;;;;;;;16.83;13.07;;;-1.40;99.90;;;;;;5029608;28;20215;-88
2023/02/08 08:20:10;;;;;;;21.13;12.40;;;-1.60;99.90;;;;;;5029471;28;20180;-88
2023/02/08 08:22:35;;;;;;;15.38;9.70;;;-1.70;99.90;;;;;;5034028;28;20222;-89
2023/02/08 08:25:01;;;;;;;23.07;15.47;;;-1.70;99.90;;;;;;5031709;28;20223;-83
2023/02/08 08:27:27;;;;;;;14.77;10.83;;;-1.80;99.90;;;;;;5028309;28;20193;-84
2023/02/08 08:29:52;;;;;;;16.30;11.33;;;-1.40;99.90;;;;;;5030604;28;20454;-87
2023/02/08 08:32:18;;;;;;;17.00;11.50;;;-0.80;99.90;;;;;;5036672;28;20204;-87
2023/02/08 08:34:43;;;;;;;17.10;10.60;;;-1.00;99.90;;;;;;5028056;28;20174;-86
2023/02/08 08:37:09;;;;;;;14.00;9.83;;;-1.10;99.70;;;;;;5027081;28;20187;-83
2023/02/08 08:39:36;;;;;;;13.50;9.47;;;-0.80;99.50;;;;;;5048666;28;20657;-82
2023/02/08 08:42:05;;;;;;;16.20;10.57;;;-0.70;99.80;;;;;;5044598;28;20467;-85
2023/02/08 08:44:31;;;;;;;16.05;10.45;;;-0.20;99.40;;;;;;5039304;28;20696;-82
2023/02/08 08:46:57;;;;;;;15.40;11.57;;;-0.40;98.60;;;;;;5043957;28;20205;-86
2023/02/08 08:49:24;;;;;;;16.17;10.65;;;-0.40;98.40;;;;;;5032848;28;20181;-87
2023/02/08 08:51:50;;;;;;;15.60;11.20;;;-0.50;98.10;;;;;;5030597;28;21719;-85
2023/02/08 08:54:16;;;;;;;14.77;10.75;;;-0.20;97.70;;;;;;5032913;28;20257;-85
2023/02/08 08:56:41;;;;;;;15.40;10.37;;;-0.20;96.70;;;;;;5026299;28;20209;-84
2023/02/08 08:59:07;;;;;;;15.60;10.50;;;0.00;95.90;;;;;;5027875;28;20760;-84
2023/02/08 09:01:33;;;;;;;16.53;11.30;;;-0.10;94.90;;;;;;5026455;28;20268;-81
2023/02/08 09:03:58;;;;;;;17.13;10.80;;;-0.10;94.60;;;;;;5029257;28;20185;-84
2023/02/08 09:06:24;;;;;;;13.87;10.50;;;0.40;94.10;;;;;;5032353;28;20455;-83
2023/02/08 09:08:49;;;;;;;15.10;11.03;;;0.60;94.40;;;;;;5025741;28;20192;-82
2023/02/08 09:11:15;;;;;;;17.40;9.93;;;0.60;94.10;;;;;;5024922;28;20213;-83
2023/02/08 09:13:41;;;;;;;12.00;10.70;;;2.40;92.30;;;;;;5028393;28;20558;-83
2023/02/08 09:16:08;;;;;;;14.48;10.60;;;4.00;87.50;;;;;;5039542;28;20189;-83
2023/02/08 09:18:34;;;;;;;12.85;9.48;;;5.80;80.30;;;;;;5028213;28;20170;-87
2023/02/08 09:21:08;;;;;;;13.43;10.00;;;6.70;73.10;;;;;;5023321;28;20209;-89
2023/02/08 09:23:33;;;;;;;14.18;10.55;;;6.20;68.90;;;;;;5024374;28;20174;-82
2023/02/08 09:26:02;;;;;;;14.47;10.97;;;7.30;69.80;;;;;;5028273;28;20189;-82
2023/02/08 09:28:28;;;;;;;13.77;10.85;;;6.30;67.10;;;;;;5025620;28;20197;-81
2023/02/08 09:30:53;;;;;;;13.33;10.70;;;6.90;67.20;;;;;;5021502;28;20213;-80
2023/02/08 09:33:19;;;;;;;14.63;10.60;;;7.50;65.30;;;;;;5020507;28;20665;-83
2023/02/08 09:35:44;;;;;;;14.13;11.20;;;6.90;66.00;;;;;;5046657;28;20182;-85
2023/02/08 09:38:10;;;;;;;12.97;10.70;;;6.80;67.30;;;;;;5031147;28;20552;-86
2023/02/08 09:41:11;;;;;;;13.00;11.25;;;7.60;64.00;;;;;;5027765;28;20316;-87
2023/02/08 09:44:08;;;;;;;12.68;10.40;;;8.40;60.30;;;;;;5030480;28;20177;-84
2023/02/08 09:46:38;;;;;;;13.35;10.77;;;8.10;58.20;;;;;;5024835;28;20190;-84
2023/02/08 09:49:12;;;;;;;19.77;11.82;;;8.80;57.80;;;;;;5031290;28;20700;-86
2023/02/08 09:51:44;;;;;;;14.85;10.43;;;9.80;56.20;;;;;;5030890;28;20210;-84
2023/02/08 09:54:25;;;;;;;13.07;10.70;;;10.70;52.30;;;;;;5041963;28;20524;-87
2023/02/08 09:56:51;;;;;;;11.93;10.18;;;10.70;51.60;;;;;;5027409;28;20196;-87
2023/02/08 09:59:27;;;;;;;11.88;10.45;;;10.30;50.90;;;;;;5028257;28;20187;-85
2023/02/08 10:02:09;;;;;;;13.23;11.18;;;9.70;52.20;;;;;;5028101;28;20205;-85
2023/02/08 10:04:45;;;;;;;13.30;10.45;;;7.80;54.30;;;;;;5042224;28;20186;-86
2023/02/08 10:07:10;;;;;;;13.93;11.27;;;8.10;57.30;;;;;;5044165;28;20657;-85
2023/02/08 10:09:36;;;;;;;16.33;10.93;;;7.00;58.10;;;;;;5025836;28;20197;-86
2023/02/08 10:12:32;;;;;;;11.80;9.70;;;7.10;58.00;;;;;;5023344;28;20331;-85
2023/02/08 10:15:08;;;;;;;14.88;10.93;;;7.50;57.80;;;;;;5025308;28;20189;-86
2023/02/08 10:17:53;;;;;;;15.55;11.70;;;7.00;58.30;;;;;;5025246;28;20177;-85
2023/02/08 10:20:56;;;;;;;14.57;10.95;;;7.30;57.60;;;;;;5026078;28;20177;-85
2023/02/08 10:23:24;;;;;;;14.27;11.43;;;7.10;57.60;;;;;;5045379;28;20189;-82
2023/02/08 10:26:12;;;;;;;14.45;11.65;;;7.50;58.00;;;;;;5029178;28;20182;-83
2023/02/08 10:28:53;;;;;;;16.35;10.95;;;7.40;58.10;;;;;;5026155;28;20583;-82
2023/02/08 10:31:29;;;;;;;14.27;10.90;;;7.30;58.50;;;;;;5026227;28;20213;-83
2023/02/08 10:34:01;;;;;;;15.75;12.15;;;7.30;58.80;;;;;;5024705;28;20195;-83
2023/02/08 10:36:34;;;;;;;14.18;10.52;;;6.80;58.70;;;;;;5040238;28;20177;-80
2023/02/08 10:39:02;;;;;;;16.35;11.77;;;6.50;60.20;;;;;;5041574;28;20177;-83
2023/02/08 10:41:35;;;;;;;13.90;10.93;;;6.70;61.70;;;;;;5046425;28;20736;-84
2023/02/08 10:44:26;;;;;;;13.05;9.70;;;7.60;59.00;;;;;;5025454;28;20276;-82
2023/02/08 10:46:58;;;;;;;13.68;9.73;;;8.40;57.30;;;;;;5044131;28;20641;-83
2023/02/08 10:49:39;;;;;;;17.27;10.23;;;8.70;55.20;;;;;;5028731;28;20197;-84
2023/02/08 10:52:05;;;;;;;14.32;10.20;;;9.20;55.10;;;;;;5030034;28;20210;-85
2023/02/08 10:54:32;;;;;;;11.47;10.10;;;9.00;53.80;;;;;;5028801;28;20178;-85
2023/02/08 10:57:03;;;;;;;14.98;10.75;;;9.50;54.00;;;;;;5034657;28;20209;-84
2023/02/08 10:59:37;;;;;;;14.40;10.70;;;9.40;53.60;;;;;;5029746;28;20665;-83
2023/02/08 11:02:25;;;;;;;11.68;10.13;;;9.30;52.40;;;;;;5031556;28;20209;-83
2023/02/08 11:05:06;;;;;;;13.23;10.20;;;9.80;53.10;;;;;;5021524;28;20899;-84
2023/02/08 11:07:32;;;;;;;12.95;10.55;;;10.60;51.60;;;;;;5025290;28;20184;-82
2023/02/08 11:10:20;;;;;;;12.30;10.77;;;9.60;50.50;;;;;;5024870;28;20195;-83
2023/02/08 11:13:13;;;;;;;17.20;13.40;;;10.00;50.80;;;;;;5040712;28;20221;-84
2023/02/08 11:15:45;;;;;;;12.27;10.30;;;9.70;52.00;;;;;;5022179;28;20775;-80
2023/02/08 11:18:27;;;;;;;13.27;10.40;;;10.00;50.60;;;;;;5022663;28;20184;-80
2023/02/08 11:20:57;;;;;;;12.82;9.82;;;11.40;49.10;;;;;;5022188;28;20232;-81
2023/02/08 11:23:28;;;;;;;17.10;9.73;;;12.30;47.40;;;;;;5023172;28;20957;-82
2023/02/08 11:26:14;;;;;;;13.45;9.00;;;11.40;45.80;;;;;;5029566;28;20626;-84
2023/02/08 11:28:40;;;;;;;13.45;9.55;;;11.40;47.00;;;;;;5027098;28;20264;-82
2023/02/08 11:31:18;;;;;;;11.10;9.13;;;11.50;47.60;;;;;;5028929;28;20205;-82
2023/02/08 11:34:22;;;;;;;12.88;10.18;;;11.30;47.20;;;;;;5028512;28;20187;-82
2023/02/08 11:36:48;;;;;;;11.20;9.95;;;11.10;47.60;;;;;;4998997;28;20287;-82
2023/02/08 11:39:27;;;;;;;10.27;8.90;;;10.70;47.10;;;;;;5022265;28;20210;-85
2023/02/08 11:41:58;;;;;;;10.60;9.50;;;10.10;47.80;;;;;;5055930;28;20213;-83
2023/02/08 11:44:34;;;;;;;11.02;9.10;;;9.80;49.90;;;;;;5027925;28;20228;-82
2023/02/08 11:47:02;;;;;;;12.38;8.98;;;9.90;50.20;;;;;;5042257;28;20206;-83
2023/02/08 11:49:40;;;;;;;12.57;8.50;;;9.60;49.70;;;;;;5028271;28;20678;-83
2023/02/08 11:52:18;;;;;;;12.05;9.75;;;9.50;49.70;;;;;;5021292;28;20218;-82
2023/02/08 11:54:43;;;;;;;12.48;8.50;;;10.00;49.80;;;;;;5027028;28;20174;-82
2023/02/08 11:57:18;;;;;;;12.30;8.87;;;11.00;48.90;;;;;;5046614;28;20208;-83
2023/02/08 11:59:48;;;;;;;11.02;8.43;;;11.10;47.90;;;;;;5028288;28;20295;-83
2023/02/08 12:02:32;;;;;;;9.52;8.43;;;11.10;47.80;;;;;;5029469;28;20679;-83
2023/02/08 12:04:58;;;;;;;12.23;9.85;;;10.50;47.80;;;;;;5039668;28;20743;-83
2023/02/08 12:07:39;;;;;;;11.90;8.98;;;10.10;48.70;;;;;;5028206;28;20276;-83
2023/02/08 12:10:23;;;;;;;12.02;9.73;;;9.70;49.70;;;;;;5042771;28;20191;-83
2023/02/08 12:13:19;;;;;;;11.85;8.43;;;9.40;51.20;;;;;;5046608;28;20213;-83
2023/02/08 12:16:21;;;;;;;10.25;7.68;;;9.40;50.90;;;;;;5042193;28;20183;-82
2023/02/08 12:19:38;;;;;;;10.35;7.90;;;9.20;50.60;;;;;;5022032;28;20190;-82
2023/02/08 12:22:09;;;;;;;10.75;7.97;;;9.20;51.50;;;;;;5029233;28;20284;-82
2023/02/08 12:25:19;;;;;;;9.80;8.07;;;9.10;52.10;;;;;;5029024;28;20178;-82
2023/02/08 12:27:47;;;;;;;12.45;7.50;;;8.80;51.00;;;;;;5027836;28;20194;-82
2023/02/08 12:30:29;;;;;;;10.18;8.23;;;8.10;51.90;;;;;;5042175;28;20575;-83
2023/02/08 12:33:10;;;;;;;9.75;8.00;;;8.50;53.00;;;;;;5026250;28;20228;-82
2023/02/08 12:36:01;;;;;;;11.02;7.60;;;8.40;52.50;;;;;;5029838;28;20181;-82
2023/02/08 12:41:43;;;;;;;7.93;6.88;;;8.50;52.60;;;;;;5041725;28;20260;-82
2023/02/08 12:44:40;;;;;;;10.27;7.05;;;8.00;52.70;;;;;;5027192;28;20189;-82
2023/02/08 12:47:36;;;;;;;9.00;7.53;;;7.90;53.60;;;;;;5028816;28;20201;-83
2023/02/08 12:50:30;;;;;;;10.10;6.75;;;7.70;54.00;;;;;;5027153;28;20276;-84
2023/02/08 12:53:20;;;;;;;8.30;6.18;;;7.70;54.30;;;;;;5032795;28;20241;-84
2023/02/08 12:55:46;;;;;;;15.32;7.20;;;7.40;54.30;;;;;;5044745;28;20566;-83